sensor_id;sensor_type;location;lat;lon;timestamp;P1;durP1;ratioP1;P2;durP2;ratioP2
67798;SDS011;54596;43.216;27.904;2024-01-07T00:01:19;12.18;;;5.13;;
67798;SDS011;54596;43.216;27.904;2024-01-07T00:03:45;11.55;;;4.78;;
67798;SDS011;54596;43.216;27.904;2024-01-07T00:06:11;14.13;;;5.40;;
67798;SDS011;54596;43.216;27.904;2024-01-07T00:08:36;14.93;;;5.10;;
67798;SDS011;54596;43.216;27.904;2024-01-07T00:11:02;14.50;;;5.00;;
67798;SDS011;54596;43.216;27.904;2024-01-07T00:13:27;15.35;;;5.40;;
67798;SDS011;54596;43.216;27.904;2024-01-07T00:15:53;14.02;;;5.40;;
67798;SDS011;54596;43.216;27.904;2024-01-07T00:18:21;17.27;;;5.57;;
67798;SDS011;54596;43.216;27.904;2024-01-07T00:20:49;17.58;;;5.50;;
67798;SDS011;54596;43.216;27.904;2024-01-07T00:23:15;17.65;;;5.75;;
67798;SDS011;54596;43.216;27.904;2024-01-07T00:25:40;14.55;;;5.28;;
67798;SDS011;54596;43.216;27.904;2024-01-07T00:28:06;14.93;;;5.90;;
67798;SDS011;54596;43.216;27.904;2024-01-07T00:30:32;17.52;;;6.53;;
67798;SDS011;54596;43.216;27.904;2024-01-07T00:32:57;17.33;;;6.65;;
67798;SDS011;54596;43.216;27.904;2024-01-07T00:35:23;17.50;;;6.38;;
67798;SDS011;54596;43.216;27.904;2024-01-07T00:37:48;18.00;;;6.53;;
67798;SDS011;54596;43.216;27.904;2024-01-07T00:40:14;14.82;;;6.07;;
67798;SDS011;54596;43.216;27.904;2024-01-07T00:42:39;18.77;;;6.72;;
67798;SDS011;54596;43.216;27.904;2024-01-07T00:45:05;16.13;;;6.00;;
67798;SDS011;54596;43.216;27.904;2024-01-07T00:47:31;16.98;;;6.20;;
67798;SDS011;54596;43.216;27.904;2024-01-07T00:49:56;14.82;;;5.72;;
67798;SDS011;54596;43.216;27.904;2024-01-07T00:52:22;14.38;;;5.38;;
67798;SDS011;54596;43.216;27.904;2024-01-07T00:54:48;16.13;;;5.57;;
67798;SDS011;54596;43.216;27.904;2024-01-07T00:57:14;13.85;;;5.07;;
67798;SDS011;54596;43.216;27.904;2024-01-07T00:59:39;15.70;;;4.93;;
67798;SDS011;54596;43.216;27.904;2024-01-07T01:02:05;15.35;;;4.63;;
67798;SDS011;54596;43.216;27.904;2024-01-07T01:04:31;13.23;;;4.72;;
67798;SDS011;54596;43.216;27.904;2024-01-07T01:06:56;14.88;;;4.75;;
67798;SDS011;54596;43.216;27.904;2024-01-07T01:09:22;11.77;;;4.75;;
67798;SDS011;54596;43.216;27.904;2024-01-07T01:11:47;13.50;;;5.13;;
67798;SDS011;54596;43.216;27.904;2024-01-07T01:14:15;12.98;;;5.00;;
67798;SDS011;54596;43.216;27.904;2024-01-07T01:16:40;15.40;;;5.45;;
67798;SDS011;54596;43.216;27.904;2024-01-07T01:19:06;14.55;;;4.63;;
67798;SDS011;54596;43.216;27.904;2024-01-07T01:21:32;11.77;;;4.70;;
67798;SDS011;54596;43.216;27.904;2024-01-07T01:23:57;11.38;;;4.63;;
67798;SDS011;54596;43.216;27.904;2024-01-07T01:26:23;12.95;;;4.50;;
67798;SDS011;54596;43.216;27.904;2024-01-07T01:28:49;12.40;;;5.03;;
67798;SDS011;54596;43.216;27.904;2024-01-07T01:31:15;12.95;;;4.60;;
67798;SDS011;54596;43.216;27.904;2024-01-07T01:33:59;12.20;;;4.43;;
67798;SDS011;54596;43.216;27.904;2024-01-07T01:36:24;12.40;;;5.10;;
67798;SDS011;54596;43.216;27.904;2024-01-07T01:38:51;12.43;;;4.47;;
67798;SDS011;54596;43.216;27.904;2024-01-07T01:41:17;12.52;;;4.68;;
67798;SDS011;54596;43.216;27.904;2024-01-07T01:43:42;14.05;;;5.45;;
67798;SDS011;54596;43.216;27.904;2024-01-07T01:46:08;14.52;;;4.97;;
67798;SDS011;54596;43.216;27.904;2024-01-07T01:48:35;13.38;;;5.30;;
67798;SDS011;54596;43.216;27.904;2024-01-07T01:51:01;13.90;;;4.50;;
67798;SDS011;54596;43.216;27.904;2024-01-07T01:53:27;15.65;;;5.22;;
67798;SDS011;54596;43.216;27.904;2024-01-07T01:55:55;15.18;;;5.05;;
67798;SDS011;54596;43.216;27.904;2024-01-07T01:58:21;16.40;;;5.72;;
67798;SDS011;54596;43.216;27.904;2024-01-07T02:00:48;14.68;;;4.88;;
67798;SDS011;54596;43.216;27.904;2024-01-07T02:03:16;13.93;;;5.35;;
67798;SDS011;54596;43.216;27.904;2024-01-07T02:05:42;15.25;;;5.30;;
67798;SDS011;54596;43.216;27.904;2024-01-07T02:08:08;13.88;;;5.35;;
67798;SDS011;54596;43.216;27.904;2024-01-07T02:10:35;16.00;;;5.53;;
67798;SDS011;54596;43.216;27.904;2024-01-07T02:13:02;18.58;;;5.57;;
67798;SDS011;54596;43.216;27.904;2024-01-07T02:15:29;13.55;;;5.72;;
67798;SDS011;54596;43.216;27.904;2024-01-07T02:17:55;15.95;;;5.93;;
67798;SDS011;54596;43.216;27.904;2024-01-07T02:20:20;17.55;;;5.57;;
67798;SDS011;54596;43.216;27.904;2024-01-07T02:22:46;16.15;;;5.97;;
67798;SDS011;54596;43.216;27.904;2024-01-07T02:25:11;15.70;;;5.88;;
67798;SDS011;54596;43.216;27.904;2024-01-07T02:27:37;14.43;;;5.40;;
67798;SDS011;54596;43.216;27.904;2024-01-07T02:30:03;16.17;;;5.90;;
67798;SDS011;54596;43.216;27.904;2024-01-07T02:32:29;16.40;;;5.10;;
67798;SDS011;54596;43.216;27.904;2024-01-07T02:34:57;16.67;;;5.53;;
67798;SDS011;54596;43.216;27.904;2024-01-07T02:37:23;13.20;;;5.10;;
67798;SDS011;54596;43.216;27.904;2024-01-07T02:39:48;12.80;;;4.78;;
67798;SDS011;54596;43.216;27.904;2024-01-07T02:42:14;12.70;;;5.05;;
67798;SDS011;54596;43.216;27.904;2024-01-07T02:44:39;12.52;;;5.43;;
67798;SDS011;54596;43.216;27.904;2024-01-07T02:47:05;15.98;;;5.38;;
67798;SDS011;54596;43.216;27.904;2024-01-07T02:49:31;14.43;;;5.03;;
67798;SDS011;54596;43.216;27.904;2024-01-07T02:51:56;14.45;;;5.05;;
67798;SDS011;54596;43.216;27.904;2024-01-07T02:54:22;13.20;;;5.10;;
67798;SDS011;54596;43.216;27.904;2024-01-07T02:56:47;15.98;;;5.63;;
67798;SDS011;54596;43.216;27.904;2024-01-07T02:59:13;15.75;;;5.57;;
67798;SDS011;54596;43.216;27.904;2024-01-07T03:01:38;14.70;;;5.80;;
67798;SDS011;54596;43.216;27.904;2024-01-07T03:04:10;16.00;;;6.07;;
67798;SDS011;54596;43.216;27.904;2024-01-07T03:06:38;16.65;;;5.65;;
67798;SDS011;54596;43.216;27.904;2024-01-07T03:09:04;16.75;;;5.88;;
67798;SDS011;54596;43.216;27.904;2024-01-07T03:11:30;14.25;;;5.70;;
67798;SDS011;54596;43.216;27.904;2024-01-07T03:13:55;15.00;;;5.45;;
67798;SDS011;54596;43.216;27.904;2024-01-07T03:16:22;14.77;;;5.65;;
67798;SDS011;54596;43.216;27.904;2024-01-07T03:18:48;14.23;;;5.70;;
67798;SDS011;54596;43.216;27.904;2024-01-07T03:21:20;16.08;;;6.03;;
67798;SDS011;54596;43.216;27.904;2024-01-07T03:23:47;14.40;;;5.68;;
67798;SDS011;54596;43.216;27.904;2024-01-07T03:26:13;14.65;;;5.35;;
67798;SDS011;54596;43.216;27.904;2024-01-07T03:28:39;15.80;;;5.43;;
67798;SDS011;54596;43.216;27.904;2024-01-07T03:31:08;15.13;;;5.45;;
67798;SDS011;54596;43.216;27.904;2024-01-07T03:33:36;15.50;;;5.78;;
67798;SDS011;54596;43.216;27.904;2024-01-07T03:36:06;15.45;;;5.88;;
67798;SDS011;54596;43.216;27.904;2024-01-07T03:38:36;15.10;;;5.78;;
67798;SDS011;54596;43.216;27.904;2024-01-07T03:41:03;17.20;;;5.72;;
67798;SDS011;54596;43.216;27.904;2024-01-07T03:43:29;14.57;;;6.13;;
67798;SDS011;54596;43.216;27.904;2024-01-07T03:45:54;14.85;;;5.75;;
67798;SDS011;54596;43.216;27.904;2024-01-07T03:48:20;17.48;;;5.97;;
67798;SDS011;54596;43.216;27.904;2024-01-07T03:50:46;12.48;;;5.53;;
67798;SDS011;54596;43.216;27.904;2024-01-07T03:53:12;17.88;;;5.90;;
67798;SDS011;54596;43.216;27.904;2024-01-07T03:55:38;13.63;;;5.60;;
67798;SDS011;54596;43.216;27.904;2024-01-07T03:58:04;13.65;;;6.07;;
67798;SDS011;54596;43.216;27.904;2024-01-07T04:00:33;18.77;;;5.78;;
67798;SDS011;54596;43.216;27.904;2024-01-07T04:02:59;17.83;;;6.05;;
67798;SDS011;54596;43.216;27.904;2024-01-07T04:05:25;14.85;;;5.70;;
67798;SDS011;54596;43.216;27.904;2024-01-07T04:07:51;14.23;;;5.60;;
67798;SDS011;54596;43.216;27.904;2024-01-07T04:10:16;12.65;;;5.30;;
67798;SDS011;54596;43.216;27.904;2024-01-07T04:12:43;12.43;;;5.28;;
67798;SDS011;54596;43.216;27.904;2024-01-07T04:15:09;17.20;;;5.90;;
67798;SDS011;54596;43.216;27.904;2024-01-07T04:17:38;13.65;;;5.60;;
67798;SDS011;54596;43.216;27.904;2024-01-07T04:20:05;13.18;;;5.63;;
67798;SDS011;54596;43.216;27.904;2024-01-07T04:22:31;15.68;;;6.50;;
67798;SDS011;54596;43.216;27.904;2024-01-07T04:24:57;15.05;;;5.90;;
67798;SDS011;54596;43.216;27.904;2024-01-07T04:27:22;16.73;;;6.18;;
67798;SDS011;54596;43.216;27.904;2024-01-07T04:29:50;14.82;;;6.15;;
67798;SDS011;54596;43.216;27.904;2024-01-07T04:32:15;15.75;;;6.20;;
67798;SDS011;54596;43.216;27.904;2024-01-07T04:34:41;17.77;;;6.07;;
67798;SDS011;54596;43.216;27.904;2024-01-07T04:37:07;17.50;;;5.93;;
67798;SDS011;54596;43.216;27.904;2024-01-07T04:39:32;13.57;;;5.90;;
67798;SDS011;54596;43.216;27.904;2024-01-07T04:41:58;17.15;;;6.32;;
67798;SDS011;54596;43.216;27.904;2024-01-07T04:44:23;14.75;;;5.90;;
67798;SDS011;54596;43.216;27.904;2024-01-07T04:46:49;14.18;;;6.13;;
67798;SDS011;54596;43.216;27.904;2024-01-07T04:49:15;14.80;;;5.63;;
67798;SDS011;54596;43.216;27.904;2024-01-07T04:51:40;14.82;;;5.30;;
67798;SDS011;54596;43.216;27.904;2024-01-07T04:54:06;14.55;;;5.70;;
67798;SDS011;54596;43.216;27.904;2024-01-07T04:56:32;15.18;;;5.95;;
67798;SDS011;54596;43.216;27.904;2024-01-07T04:58:57;13.93;;;5.78;;
67798;SDS011;54596;43.216;27.904;2024-01-07T05:01:23;17.15;;;6.05;;
67798;SDS011;54596;43.216;27.904;2024-01-07T05:03:49;16.77;;;6.32;;
67798;SDS011;54596;43.216;27.904;2024-01-07T05:06:14;17.23;;;6.50;;
67798;SDS011;54596;43.216;27.904;2024-01-07T05:08:40;18.85;;;6.35;;
67798;SDS011;54596;43.216;27.904;2024-01-07T05:11:06;17.13;;;5.88;;
67798;SDS011;54596;43.216;27.904;2024-01-07T05:13:33;18.40;;;6.55;;
67798;SDS011;54596;43.216;27.904;2024-01-07T05:16:00;14.35;;;6.22;;
67798;SDS011;54596;43.216;27.904;2024-01-07T05:18:26;15.90;;;5.90;;
67798;SDS011;54596;43.216;27.904;2024-01-07T05:20:52;15.90;;;6.00;;
67798;SDS011;54596;43.216;27.904;2024-01-07T05:23:18;17.23;;;6.45;;
67798;SDS011;54596;43.216;27.904;2024-01-07T05:25:43;16.35;;;6.28;;
67798;SDS011;54596;43.216;27.904;2024-01-07T05:28:10;18.23;;;6.63;;
67798;SDS011;54596;43.216;27.904;2024-01-07T05:30:36;16.65;;;6.72;;
67798;SDS011;54596;43.216;27.904;2024-01-07T05:33:02;14.63;;;6.30;;
67798;SDS011;54596;43.216;27.904;2024-01-07T05:35:27;14.68;;;6.07;;
67798;SDS011;54596;43.216;27.904;2024-01-07T05:37:53;15.65;;;6.10;;
67798;SDS011;54596;43.216;27.904;2024-01-07T05:40:18;17.48;;;6.50;;
67798;SDS011;54596;43.216;27.904;2024-01-07T05:42:44;17.92;;;6.18;;
67798;SDS011;54596;43.216;27.904;2024-01-07T05:45:09;14.85;;;5.70;;
67798;SDS011;54596;43.216;27.904;2024-01-07T05:47:35;18.13;;;6.28;;
67798;SDS011;54596;43.216;27.904;2024-01-07T05:50:01;16.52;;;6.28;;
67798;SDS011;54596;43.216;27.904;2024-01-07T05:52:27;18.60;;;6.68;;
67798;SDS011;54596;43.216;27.904;2024-01-07T05:54:53;16.50;;;6.32;;
67798;SDS011;54596;43.216;27.904;2024-01-07T05:57:18;17.05;;;7.70;;
67798;SDS011;54596;43.216;27.904;2024-01-07T05:59:44;17.10;;;6.70;;
67798;SDS011;54596;43.216;27.904;2024-01-07T06:02:10;17.77;;;6.63;;
67798;SDS011;54596;43.216;27.904;2024-01-07T06:04:37;16.33;;;6.22;;
67798;SDS011;54596;43.216;27.904;2024-01-07T06:07:03;13.20;;;5.57;;
67798;SDS011;54596;43.216;27.904;2024-01-07T06:09:29;17.92;;;6.43;;
67798;SDS011;54596;43.216;27.904;2024-01-07T06:11:55;15.88;;;6.10;;
67798;SDS011;54596;43.216;27.904;2024-01-07T06:14:21;14.68;;;5.60;;
67798;SDS011;54596;43.216;27.904;2024-01-07T06:16:47;17.27;;;6.10;;
67798;SDS011;54596;43.216;27.904;2024-01-07T06:19:13;17.02;;;6.05;;
67798;SDS011;54596;43.216;27.904;2024-01-07T06:21:40;16.85;;;6.70;;
67798;SDS011;54596;43.216;27.904;2024-01-07T06:24:07;18.10;;;6.10;;
67798;SDS011;54596;43.216;27.904;2024-01-07T06:26:33;18.25;;;6.30;;
67798;SDS011;54596;43.216;27.904;2024-01-07T06:28:59;16.10;;;5.72;;
67798;SDS011;54596;43.216;27.904;2024-01-07T06:31:25;15.25;;;5.97;;
67798;SDS011;54596;43.216;27.904;2024-01-07T06:33:50;16.23;;;5.93;;
67798;SDS011;54596;43.216;27.904;2024-01-07T06:36:16;16.52;;;5.95;;
67798;SDS011;54596;43.216;27.904;2024-01-07T06:38:41;14.38;;;6.18;;
67798;SDS011;54596;43.216;27.904;2024-01-07T06:41:07;17.20;;;6.70;;
67798;SDS011;54596;43.216;27.904;2024-01-07T06:43:35;18.67;;;6.15;;
67798;SDS011;54596;43.216;27.904;2024-01-07T06:46:00;15.05;;;6.10;;
67798;SDS011;54596;43.216;27.904;2024-01-07T06:48:26;15.10;;;5.95;;
67798;SDS011;54596;43.216;27.904;2024-01-07T06:50:52;16.80;;;6.22;;
67798;SDS011;54596;43.216;27.904;2024-01-07T06:53:17;14.32;;;5.85;;
67798;SDS011;54596;43.216;27.904;2024-01-07T06:55:43;13.10;;;5.20;;
67798;SDS011;54596;43.216;27.904;2024-01-07T06:58:08;13.13;;;5.40;;
67798;SDS011;54596;43.216;27.904;2024-01-07T07:00:34;13.90;;;5.20;;
67798;SDS011;54596;43.216;27.904;2024-01-07T07:02:59;14.20;;;5.15;;
67798;SDS011;54596;43.216;27.904;2024-01-07T07:05:25;14.68;;;4.82;;
67798;SDS011;54596;43.216;27.904;2024-01-07T07:07:51;14.77;;;5.57;;
67798;SDS011;54596;43.216;27.904;2024-01-07T07:10:16;15.40;;;5.60;;
67798;SDS011;54596;43.216;27.904;2024-01-07T07:12:51;14.70;;;5.40;;
67798;SDS011;54596;43.216;27.904;2024-01-07T07:15:17;17.23;;;6.18;;
67798;SDS011;54596;43.216;27.904;2024-01-07T07:17:43;15.45;;;5.53;;
67798;SDS011;54596;43.216;27.904;2024-01-07T07:20:09;25.27;;;13.45;;
67798;SDS011;54596;43.216;27.904;2024-01-07T07:22:34;18.98;;;6.45;;
67798;SDS011;54596;43.216;27.904;2024-01-07T07:25:00;15.00;;;5.65;;
67798;SDS011;54596;43.216;27.904;2024-01-07T07:27:26;12.90;;;4.90;;
67798;SDS011;54596;43.216;27.904;2024-01-07T07:29:51;57.47;;;8.38;;
67798;SDS011;54596;43.216;27.904;2024-01-07T07:32:17;13.10;;;4.50;;
67798;SDS011;54596;43.216;27.904;2024-01-07T07:34:43;11.20;;;4.65;;
67798;SDS011;54596;43.216;27.904;2024-01-07T07:37:09;13.95;;;4.80;;
67798;SDS011;54596;43.216;27.904;2024-01-07T07:39:35;14.73;;;4.50;;
67798;SDS011;54596;43.216;27.904;2024-01-07T07:42:00;12.57;;;4.82;;
67798;SDS011;54596;43.216;27.904;2024-01-07T07:44:26;17.13;;;6.95;;
67798;SDS011;54596;43.216;27.904;2024-01-07T07:46:51;12.23;;;4.95;;
67798;SDS011;54596;43.216;27.904;2024-01-07T07:49:17;19.05;;;6.10;;
67798;SDS011;54596;43.216;27.904;2024-01-07T07:51:43;18.08;;;5.68;;
67798;SDS011;54596;43.216;27.904;2024-01-07T07:54:09;12.75;;;3.88;;
67798;SDS011;54596;43.216;27.904;2024-01-07T07:56:34;13.32;;;4.55;;
67798;SDS011;54596;43.216;27.904;2024-01-07T07:59:01;9.57;;;3.65;;
67798;SDS011;54596;43.216;27.904;2024-01-07T08:01:27;11.68;;;3.88;;
67798;SDS011;54596;43.216;27.904;2024-01-07T08:03:53;11.57;;;3.88;;
67798;SDS011;54596;43.216;27.904;2024-01-07T08:06:19;21.45;;;10.57;;
67798;SDS011;54596;43.216;27.904;2024-01-07T08:08:44;74.68;;;46.15;;
67798;SDS011;54596;43.216;27.904;2024-01-07T08:11:10;12.73;;;4.30;;
67798;SDS011;54596;43.216;27.904;2024-01-07T08:13:36;13.18;;;4.38;;
67798;SDS011;54596;43.216;27.904;2024-01-07T08:16:03;10.38;;;3.88;;
67798;SDS011;54596;43.216;27.904;2024-01-07T08:18:29;10.00;;;3.30;;
67798;SDS011;54596;43.216;27.904;2024-01-07T08:20:55;8.48;;;2.80;;
67798;SDS011;54596;43.216;27.904;2024-01-07T08:23:20;13.10;;;3.17;;
67798;SDS011;54596;43.216;27.904;2024-01-07T08:25:46;9.68;;;2.70;;
67798;SDS011;54596;43.216;27.904;2024-01-07T08:28:11;9.00;;;2.72;;
67798;SDS011;54596;43.216;27.904;2024-01-07T08:30:37;10.82;;;3.30;;
67798;SDS011;54596;43.216;27.904;2024-01-07T08:33:03;8.70;;;2.53;;
67798;SDS011;54596;43.216;27.904;2024-01-07T08:35:28;6.60;;;2.10;;
67798;SDS011;54596;43.216;27.904;2024-01-07T08:37:54;9.57;;;2.83;;
67798;SDS011;54596;43.216;27.904;2024-01-07T08:40:19;8.25;;;2.40;;
67798;SDS011;54596;43.216;27.904;2024-01-07T08:42:46;6.88;;;2.20;;
67798;SDS011;54596;43.216;27.904;2024-01-07T08:45:12;10.50;;;2.20;;
67798;SDS011;54596;43.216;27.904;2024-01-07T08:47:38;14.20;;;4.88;;
67798;SDS011;54596;43.216;27.904;2024-01-07T08:50:04;8.98;;;2.72;;
67798;SDS011;54596;43.216;27.904;2024-01-07T08:52:30;11.93;;;2.38;;
67798;SDS011;54596;43.216;27.904;2024-01-07T08:54:56;11.75;;;2.65;;
67798;SDS011;54596;43.216;27.904;2024-01-07T08:57:21;11.90;;;2.85;;
67798;SDS011;54596;43.216;27.904;2024-01-07T08:59:47;9.65;;;2.22;;
67798;SDS011;54596;43.216;27.904;2024-01-07T09:02:13;10.57;;;3.55;;
67798;SDS011;54596;43.216;27.904;2024-01-07T09:04:39;12.20;;;2.58;;
67798;SDS011;54596;43.216;27.904;2024-01-07T09:07:04;9.98;;;2.65;;
67798;SDS011;54596;43.216;27.904;2024-01-07T09:09:30;12.63;;;2.33;;
67798;SDS011;54596;43.216;27.904;2024-01-07T09:11:55;13.52;;;2.40;;
67798;SDS011;54596;43.216;27.904;2024-01-07T09:14:22;12.80;;;2.70;;
67798;SDS011;54596;43.216;27.904;2024-01-07T09:16:50;12.80;;;2.55;;
67798;SDS011;54596;43.216;27.904;2024-01-07T09:19:16;11.63;;;2.60;;
67798;SDS011;54596;43.216;27.904;2024-01-07T09:21:42;18.50;;;2.67;;
67798;SDS011;54596;43.216;27.904;2024-01-07T09:24:09;14.57;;;2.97;;
67798;SDS011;54596;43.216;27.904;2024-01-07T09:26:34;15.63;;;2.80;;
67798;SDS011;54596;43.216;27.904;2024-01-07T09:29:00;16.38;;;3.20;;
67798;SDS011;54596;43.216;27.904;2024-01-07T09:31:26;18.77;;;3.50;;
67798;SDS011;54596;43.216;27.904;2024-01-07T09:33:52;19.85;;;3.72;;
67798;SDS011;54596;43.216;27.904;2024-01-07T09:36:18;18.40;;;4.45;;
67798;SDS011;54596;43.216;27.904;2024-01-07T09:38:43;19.80;;;4.10;;
67798;SDS011;54596;43.216;27.904;2024-01-07T09:41:09;16.98;;;4.30;;
67798;SDS011;54596;43.216;27.904;2024-01-07T09:43:35;20.10;;;4.13;;
67798;SDS011;54596;43.216;27.904;2024-01-07T09:46:01;22.80;;;4.10;;
67798;SDS011;54596;43.216;27.904;2024-01-07T09:48:27;19.20;;;3.72;;
67798;SDS011;54596;43.216;27.904;2024-01-07T09:50:53;20.65;;;4.60;;
67798;SDS011;54596;43.216;27.904;2024-01-07T09:53:19;21.48;;;4.45;;
67798;SDS011;54596;43.216;27.904;2024-01-07T09:55:52;20.33;;;4.13;;
67798;SDS011;54596;43.216;27.904;2024-01-07T09:58:26;23.60;;;4.88;;
67798;SDS011;54596;43.216;27.904;2024-01-07T10:00:52;23.17;;;4.80;;
67798;SDS011;54596;43.216;27.904;2024-01-07T10:03:19;26.60;;;4.38;;
67798;SDS011;54596;43.216;27.904;2024-01-07T10:05:45;21.63;;;4.80;;
67798;SDS011;54596;43.216;27.904;2024-01-07T10:08:10;28.92;;;5.63;;
67798;SDS011;54596;43.216;27.904;2024-01-07T10:10:36;26.60;;;4.50;;
67798;SDS011;54596;43.216;27.904;2024-01-07T10:13:02;30.73;;;7.03;;
67798;SDS011;54596;43.216;27.904;2024-01-07T10:15:28;22.30;;;4.95;;
67798;SDS011;54596;43.216;27.904;2024-01-07T10:18:02;25.33;;;5.43;;
67798;SDS011;54596;43.216;27.904;2024-01-07T10:20:29;25.27;;;5.55;;
67798;SDS011;54596;43.216;27.904;2024-01-07T10:22:57;31.05;;;6.30;;
67798;SDS011;54596;43.216;27.904;2024-01-07T10:25:23;28.67;;;7.53;;
67798;SDS011;54596;43.216;27.904;2024-01-07T10:27:48;24.48;;;5.97;;
67798;SDS011;54596;43.216;27.904;2024-01-07T10:30:15;26.83;;;7.30;;
67798;SDS011;54596;43.216;27.904;2024-01-07T10:32:41;28.67;;;6.18;;
67798;SDS011;54596;43.216;27.904;2024-01-07T10:35:07;28.05;;;5.38;;
67798;SDS011;54596;43.216;27.904;2024-01-07T10:37:39;31.58;;;5.60;;
67798;SDS011;54596;43.216;27.904;2024-01-07T10:40:05;29.08;;;6.10;;
67798;SDS011;54596;43.216;27.904;2024-01-07T10:42:32;28.23;;;5.47;;
67798;SDS011;54596;43.216;27.904;2024-01-07T10:45:02;26.67;;;5.45;;
67798;SDS011;54596;43.216;27.904;2024-01-07T10:47:29;30.20;;;5.07;;
67798;SDS011;54596;43.216;27.904;2024-01-07T10:49:56;30.50;;;5.60;;
67798;SDS011;54596;43.216;27.904;2024-01-07T10:52:24;28.42;;;5.75;;
67798;SDS011;54596;43.216;27.904;2024-01-07T10:54:52;33.97;;;7.05;;
67798;SDS011;54596;43.216;27.904;2024-01-07T10:59:52;28.00;;;6.30;;
67798;SDS011;54596;43.216;27.904;2024-01-07T11:02:19;32.78;;;6.30;;
67798;SDS011;54596;43.216;27.904;2024-01-07T11:04:51;27.33;;;5.25;;
67798;SDS011;54596;43.216;27.904;2024-01-07T11:07:35;28.08;;;5.93;;
67798;SDS011;54596;43.216;27.904;2024-01-07T11:10:20;23.92;;;5.65;;
67798;SDS011;54596;43.216;27.904;2024-01-07T11:12:56;28.77;;;5.53;;
67798;SDS011;54596;43.216;27.904;2024-01-07T11:18:22;29.85;;;5.72;;
67798;SDS011;54596;43.216;27.904;2024-01-07T11:20:48;30.58;;;5.93;;
67798;SDS011;54596;43.216;27.904;2024-01-07T11:23:27;35.08;;;7.18;;
67798;SDS011;54596;43.216;27.904;2024-01-07T11:25:55;30.25;;;5.95;;
67798;SDS011;54596;43.216;27.904;2024-01-07T11:28:44;27.00;;;5.90;;
67798;SDS011;54596;43.216;27.904;2024-01-07T11:31:44;38.25;;;11.18;;
67798;SDS011;54596;43.216;27.904;2024-01-07T11:37:19;33.03;;;6.72;;
67798;SDS011;54596;43.216;27.904;2024-01-07T11:39:46;32.63;;;5.82;;
67798;SDS011;54596;43.216;27.904;2024-01-07T11:42:12;29.75;;;10.10;;
67798;SDS011;54596;43.216;27.904;2024-01-07T11:44:45;31.58;;;5.75;;
67798;SDS011;54596;43.216;27.904;2024-01-07T11:47:14;31.70;;;5.90;;
67798;SDS011;54596;43.216;27.904;2024-01-07T11:49:46;31.35;;;6.32;;
67798;SDS011;54596;43.216;27.904;2024-01-07T11:52:12;30.15;;;8.38;;
67798;SDS011;54596;43.216;27.904;2024-01-07T11:54:39;38.58;;;13.80;;
67798;SDS011;54596;43.216;27.904;2024-01-07T11:57:06;27.70;;;5.97;;
67798;SDS011;54596;43.216;27.904;2024-01-07T11:59:35;34.45;;;6.85;;
67798;SDS011;54596;43.216;27.904;2024-01-07T12:02:02;28.20;;;5.38;;
67798;SDS011;54596;43.216;27.904;2024-01-07T12:04:34;33.45;;;5.85;;
67798;SDS011;54596;43.216;27.904;2024-01-07T12:06:59;28.02;;;6.35;;
67798;SDS011;54596;43.216;27.904;2024-01-07T12:09:26;33.40;;;5.20;;
67798;SDS011;54596;43.216;27.904;2024-01-07T12:11:52;26.77;;;5.57;;
67798;SDS011;54596;43.216;27.904;2024-01-07T12:14:19;29.20;;;5.93;;
67798;SDS011;54596;43.216;27.904;2024-01-07T12:16:45;36.65;;;6.65;;
67798;SDS011;54596;43.216;27.904;2024-01-07T12:19:11;31.15;;;7.07;;
67798;SDS011;54596;43.216;27.904;2024-01-07T12:21:37;27.30;;;5.78;;
67798;SDS011;54596;43.216;27.904;2024-01-07T12:24:03;35.88;;;7.63;;
67798;SDS011;54596;43.216;27.904;2024-01-07T12:26:30;28.02;;;5.35;;
67798;SDS011;54596;43.216;27.904;2024-01-07T12:28:58;27.40;;;5.18;;
67798;SDS011;54596;43.216;27.904;2024-01-07T12:31:31;27.73;;;5.15;;
67798;SDS011;54596;43.216;27.904;2024-01-07T12:33:58;27.48;;;5.85;;
67798;SDS011;54596;43.216;27.904;2024-01-07T12:36:24;25.67;;;5.45;;
67798;SDS011;54596;43.216;27.904;2024-01-07T12:38:50;31.25;;;6.05;;
67798;SDS011;54596;43.216;27.904;2024-01-07T12:41:19;33.10;;;6.78;;
67798;SDS011;54596;43.216;27.904;2024-01-07T12:43:46;31.58;;;6.07;;
67798;SDS011;54596;43.216;27.904;2024-01-07T12:46:11;28.83;;;5.85;;
67798;SDS011;54596;43.216;27.904;2024-01-07T12:48:37;31.00;;;6.65;;
67798;SDS011;54596;43.216;27.904;2024-01-07T12:51:02;29.08;;;5.95;;
67798;SDS011;54596;43.216;27.904;2024-01-07T12:53:28;29.25;;;6.32;;
67798;SDS011;54596;43.216;27.904;2024-01-07T12:55:54;31.00;;;5.90;;
67798;SDS011;54596;43.216;27.904;2024-01-07T12:58:20;32.83;;;6.00;;
67798;SDS011;54596;43.216;27.904;2024-01-07T13:00:46;31.60;;;6.05;;
67798;SDS011;54596;43.216;27.904;2024-01-07T13:03:15;31.27;;;6.05;;
67798;SDS011;54596;43.216;27.904;2024-01-07T13:05:44;29.00;;;5.95;;
67798;SDS011;54596;43.216;27.904;2024-01-07T13:08:11;28.65;;;6.75;;
67798;SDS011;54596;43.216;27.904;2024-01-07T13:10:38;31.33;;;7.55;;
67798;SDS011;54596;43.216;27.904;2024-01-07T13:13:04;31.65;;;6.05;;
67798;SDS011;54596;43.216;27.904;2024-01-07T13:15:29;24.38;;;5.78;;
67798;SDS011;54596;43.216;27.904;2024-01-07T13:17:55;31.30;;;6.68;;
67798;SDS011;54596;43.216;27.904;2024-01-07T13:20:20;30.90;;;5.85;;
67798;SDS011;54596;43.216;27.904;2024-01-07T13:22:46;30.33;;;6.20;;
67798;SDS011;54596;43.216;27.904;2024-01-07T13:25:12;31.48;;;6.60;;
67798;SDS011;54596;43.216;27.904;2024-01-07T13:27:37;31.52;;;6.53;;
67798;SDS011;54596;43.216;27.904;2024-01-07T13:30:06;38.05;;;8.50;;
67798;SDS011;54596;43.216;27.904;2024-01-07T13:32:32;36.53;;;7.95;;
67798;SDS011;54596;43.216;27.904;2024-01-07T13:35:01;32.90;;;7.80;;
67798;SDS011;54596;43.216;27.904;2024-01-07T13:37:31;32.63;;;7.53;;
67798;SDS011;54596;43.216;27.904;2024-01-07T13:39:56;28.83;;;7.50;;
67798;SDS011;54596;43.216;27.904;2024-01-07T13:42:22;26.85;;;6.00;;
67798;SDS011;54596;43.216;27.904;2024-01-07T13:44:48;30.83;;;6.28;;
67798;SDS011;54596;43.216;27.904;2024-01-07T13:47:14;29.90;;;6.70;;
67798;SDS011;54596;43.216;27.904;2024-01-07T13:49:40;30.08;;;6.47;;
67798;SDS011;54596;43.216;27.904;2024-01-07T13:52:06;30.40;;;6.07;;
67798;SDS011;54596;43.216;27.904;2024-01-07T13:54:32;24.95;;;6.55;;
67798;SDS011;54596;43.216;27.904;2024-01-07T13:56:57;30.70;;;6.63;;
67798;SDS011;54596;43.216;27.904;2024-01-07T13:59:25;31.55;;;6.47;;
67798;SDS011;54596;43.216;27.904;2024-01-07T14:01:51;30.38;;;5.95;;
67798;SDS011;54596;43.216;27.904;2024-01-07T14:04:17;32.90;;;6.95;;
67798;SDS011;54596;43.216;27.904;2024-01-07T14:06:42;36.83;;;9.15;;
67798;SDS011;54596;43.216;27.904;2024-01-07T14:09:09;37.63;;;10.23;;
67798;SDS011;54596;43.216;27.904;2024-01-07T14:11:34;34.00;;;7.97;;
67798;SDS011;54596;43.216;27.904;2024-01-07T14:14:00;34.60;;;8.05;;
67798;SDS011;54596;43.216;27.904;2024-01-07T14:16:26;39.08;;;7.22;;
67798;SDS011;54596;43.216;27.904;2024-01-07T14:18:52;30.23;;;6.20;;
67798;SDS011;54596;43.216;27.904;2024-01-07T14:21:18;29.77;;;6.70;;
67798;SDS011;54596;43.216;27.904;2024-01-07T14:23:43;29.60;;;6.22;;
67798;SDS011;54596;43.216;27.904;2024-01-07T14:26:09;29.92;;;6.43;;